createdAt,value
2019-02-04T00:00:52.267Z,99.99
2019-02-04T00:01:52.250Z,99.99
2019-02-04T00:02:52.315Z,99.99
2019-02-04T00:03:52.182Z,99.99
2019-02-04T00:04:52.179Z,99.99
2019-02-04T00:05:52.178Z,99.99
2019-02-04T00:07:00.226Z,99.99
2019-02-04T00:07:52.856Z,99.99
2019-02-04T00:08:52.160Z,99.99
2019-02-04T00:09:52.138Z,99.99
2019-02-04T00:10:52.162Z,99.99
2019-02-04T00:11:52.242Z,99.99
2019-02-04T00:12:52.112Z,99.99
2019-02-04T00:13:52.141Z,99.99
2019-02-04T00:14:52.102Z,99.99
2019-02-04T00:15:59.910Z,99.99
2019-02-04T00:16:59.253Z,99.99
2019-02-04T00:17:59.314Z,99.99
2019-02-04T00:19:00.113Z,99.99
2019-02-04T00:19:52.109Z,99.99
2019-02-04T00:20:52.036Z,99.99
2019-02-04T00:21:52.026Z,99.99
2019-02-04T00:22:52.012Z,99.99
2019-02-04T00:23:51.971Z,99.99
2019-02-04T00:24:52.030Z,99.99
2019-02-04T00:25:52.904Z,99.99
2019-02-04T00:26:52.048Z,99.99
2019-02-04T00:27:51.915Z,99.99
2019-02-04T00:28:51.923Z,99.99
2019-02-04T00:29:51.910Z,99.99
2019-02-04T00:30:51.909Z,99.99
2019-02-04T00:31:51.906Z,99.99
2019-02-04T00:32:51.883Z,99.99
2019-02-04T00:33:51.853Z,99.99
2019-02-04T00:34:51.842Z,99.99
2019-02-04T00:35:51.857Z,99.99
2019-02-04T00:36:51.853Z,99.99
2019-02-04T00:37:51.829Z,99.99
2019-02-04T00:38:52.375Z,99.99
2019-02-04T00:39:51.835Z,99.99
2019-02-04T00:40:51.785Z,99.99
2019-02-04T00:41:51.793Z,99.99
2019-02-04T00:42:51.777Z,99.99
2019-02-04T00:43:51.764Z,99.99
2019-02-04T00:44:51.750Z,99.99
2019-02-04T00:45:51.754Z,99.99
2019-02-04T00:46:52.587Z,99.99
2019-02-04T00:47:51.717Z,99.99
2019-02-04T00:48:51.714Z,99.99
2019-02-04T00:49:51.711Z,99.99
2019-02-04T00:50:51.672Z,99.99
2019-02-04T00:51:51.702Z,99.99
2019-02-04T00:52:51.656Z,99.99
2019-02-04T00:53:51.667Z,99.99
2019-02-04T00:54:51.654Z,99.99
2019-02-04T00:55:51.652Z,99.99
2019-02-04T00:56:51.652Z,99.99
2019-02-04T00:57:51.676Z,99.99
2019-02-04T00:58:51.610Z,99.99
2019-02-04T00:59:51.602Z,99.99
2019-02-04T01:00:51.594Z,99.99
2019-02-04T01:01:51.617Z,99.99
2019-02-04T01:02:51.607Z,99.99
2019-02-04T01:03:51.531Z,99.99
2019-02-04T01:04:51.532Z,99.99
2019-02-04T01:05:51.545Z,99.99
2019-02-04T01:06:51.546Z,99.99
2019-02-04T01:07:51.524Z,99.99
2019-02-04T01:08:51.495Z,99.99
2019-02-04T01:09:59.611Z,99.99
2019-02-04T01:11:00.015Z,99.99
2019-02-04T01:11:58.627Z,99.99
2019-02-04T01:12:51.476Z,99.99
2019-02-04T01:13:51.438Z,99.99
2019-02-04T01:14:51.433Z,99.99
2019-02-04T01:15:51.412Z,99.99
2019-02-04T01:16:51.423Z,99.99
2019-02-04T01:17:51.391Z,99.99
2019-02-04T01:18:51.388Z,99.99
2019-02-04T01:19:51.385Z,99.99
2019-02-04T01:20:51.355Z,99.99
2019-02-04T01:21:51.403Z,99.99
2019-02-04T01:22:51.499Z,99.99
2019-02-04T01:23:51.992Z,99.99
2019-02-04T01:27:49.138Z,99.99
2019-02-04T01:28:50.170Z,99.99
2019-02-04T01:29:49.482Z,99.99
2019-02-04T01:30:48.951Z,99.99
2019-02-04T01:31:48.608Z,99.99
2019-02-04T01:32:48.410Z,99.99
2019-02-04T01:33:48.381Z,99.99
2019-02-04T01:34:48.974Z,99.99
2019-02-04T01:35:48.542Z,99.99
2019-02-04T01:36:49.048Z,99.99
2019-02-04T01:37:51.135Z,99.99
2019-02-04T01:38:51.532Z,99.99
2019-02-04T01:39:50.181Z,99.99
2019-02-04T01:48:22.799Z,99.99
2019-02-04T01:49:23.515Z,99.99
2019-02-04T01:50:22.887Z,99.99
2019-02-04T01:51:23.758Z,99.99
2019-02-04T01:52:24.873Z,99.99
2019-02-04T01:53:39.333Z,99.99
2019-02-04T01:54:26.170Z,99.99
2019-02-04T01:55:32.547Z,99.99
2019-02-04T01:56:22.723Z,99.99
2019-02-04T01:57:24.876Z,99.99
2019-02-04T01:58:46.797Z,99.99
2019-02-04T01:59:22.931Z,99.99
2019-02-04T02:00:33.556Z,99.99
2019-02-04T02:01:32.097Z,99.99
2019-02-04T02:02:39.523Z,99.99
2019-02-04T02:03:25.630Z,99.99
2019-02-04T02:04:24.759Z,99.99
2019-02-04T02:05:22.632Z,99.99
2019-02-04T02:06:23.164Z,99.99
2019-02-04T02:07:26.104Z,99.99
2019-02-04T02:08:22.706Z,99.99
2019-02-04T02:09:22.788Z,99.99
2019-02-04T02:10:23.696Z,99.99
2019-02-04T02:11:22.845Z,99.99
2019-02-04T02:12:23.117Z,99.99
2019-02-04T02:13:25.258Z,99.99
2019-02-04T02:14:32.609Z,99.99
2019-02-04T02:15:37.123Z,99.99
2019-02-04T02:16:22.750Z,99.99
2019-02-04T02:17:32.239Z,99.99
2019-02-04T02:18:22.799Z,99.99
2019-02-04T02:19:23.119Z,99.99
2019-02-04T02:20:30.910Z,99.99
2019-02-04T02:21:24.380Z,99.99
2019-02-04T02:22:23.606Z,99.99
2019-02-04T02:23:32.666Z,99.99
2019-02-04T02:24:41.230Z,99.99
2019-02-04T02:25:23.700Z,99.99
2019-02-04T02:28:16.429Z,99.99
2019-02-04T02:29:16.437Z,99.99
2019-02-04T02:30:17.972Z,99.99
2019-02-04T02:34:18.843Z,99.99
2019-02-04T02:36:47.656Z,99.99
2019-02-04T02:37:48.831Z,99.99
2019-02-04T02:38:59.730Z,99.99
2019-02-04T02:39:48.900Z,99.99
2019-02-04T02:40:48.714Z,99.99
2019-02-04T02:43:11.620Z,99.99
2019-02-04T02:44:08.874Z,99.99
2019-02-04T02:45:37.826Z,99.99
2019-02-04T02:46:11.696Z,99.99
2019-02-04T02:47:10.159Z,99.99
2019-02-04T02:48:10.583Z,99.99
2019-02-04T02:49:09.095Z,99.99
2019-02-04T02:50:10.895Z,99.99
2019-02-04T02:51:11.111Z,99.99
2019-02-04T02:52:11.127Z,99.99
2019-02-04T02:53:12.190Z,99.99
2019-02-04T02:54:10.352Z,99.99
2019-02-04T02:55:09.178Z,99.99
2019-02-04T02:56:08.970Z,99.99
2019-02-04T02:57:17.572Z,99.99
2019-02-04T02:58:08.712Z,99.99
2019-02-04T02:59:08.791Z,99.99
2019-02-04T03:00:08.732Z,99.99
2019-02-04T03:01:09.800Z,99.99
2019-02-04T03:02:11.730Z,99.99
2019-02-04T03:03:09.286Z,99.99
2019-02-04T03:04:09.164Z,99.99
2019-02-04T03:05:12.008Z,99.99
2019-02-04T03:06:17.258Z,99.99
2019-02-04T03:09:40.468Z,99.99
2019-02-04T03:16:07.278Z,99.99
2019-02-04T03:18:41.682Z,99.99
2019-02-04T03:21:30.450Z,99.99
2019-02-04T03:22:39.617Z,99.99
2019-02-04T03:23:46.632Z,99.99
2019-02-04T03:24:35.243Z,99.99
2019-02-04T03:25:31.713Z,99.99
2019-02-04T03:26:31.085Z,99.99
2019-02-04T03:27:31.268Z,99.99
2019-02-04T03:28:32.408Z,99.99
2019-02-04T03:29:41.737Z,99.99
2019-02-04T03:30:30.466Z,99.99
2019-02-04T03:31:31.239Z,99.99
2019-02-04T03:32:32.182Z,99.99
2019-02-04T03:35:13.695Z,99.99
2019-02-04T03:36:15.380Z,99.99
2019-02-04T03:37:18.385Z,99.99
2019-02-04T03:38:14.760Z,99.99
2019-02-04T03:39:14.843Z,99.99
2019-02-04T03:40:14.741Z,99.99
2019-02-04T03:41:15.181Z,99.99
2019-02-04T03:42:14.902Z,99.99
2019-02-04T03:43:13.814Z,99.99
2019-02-04T03:44:14.594Z,99.99
2019-02-04T03:45:15.176Z,99.99
2019-02-04T03:46:16.926Z,99.99
2019-02-04T03:49:38.474Z,99.99
2019-02-04T03:50:49.155Z,99.99
2019-02-04T03:53:17.971Z,99.99
2019-02-04T03:55:36.607Z,99.99
2019-02-04T03:56:47.287Z,99.99
2019-02-04T03:57:46.896Z,99.99
2019-02-04T03:58:47.603Z,99.99
2019-02-04T03:59:37.733Z,99.99
2019-02-04T04:00:38.682Z,99.99
2019-02-04T04:01:36.666Z,99.99
2019-02-04T04:02:37.761Z,99.99
2019-02-04T04:03:40.937Z,99.99
2019-02-04T04:04:48.437Z,99.99
2019-02-04T04:05:48.475Z,99.99
2019-02-04T04:06:45.533Z,99.99
2019-02-04T04:08:56.080Z,99.99
2019-02-04T04:09:56.244Z,99.99
2019-02-04T04:10:58.086Z,99.99
2019-02-04T04:11:57.992Z,99.99
2019-02-04T04:12:58.756Z,99.99
2019-02-04T04:13:57.346Z,99.99
2019-02-04T04:14:57.285Z,99.99
2019-02-04T04:15:57.147Z,99.99
2019-02-04T04:18:16.210Z,99.99
2019-02-04T04:19:16.567Z,99.99
2019-02-04T04:20:14.643Z,99.99
2019-02-04T04:21:14.698Z,99.99
2019-02-04T04:22:15.562Z,99.99
2019-02-04T04:23:18.717Z,99.99
2019-02-04T04:24:25.480Z,99.99
2019-02-04T04:26:44.643Z,99.99
2019-02-04T04:29:23.437Z,99.99
2019-02-04T04:30:23.445Z,99.99
2019-02-04T04:31:24.530Z,99.99
2019-02-04T04:32:26.450Z,99.99
2019-02-04T04:33:26.957Z,99.99
2019-02-04T04:34:23.548Z,99.99
2019-02-04T04:35:24.359Z,99.99
2019-02-04T04:36:24.435Z,99.99
2019-02-04T04:37:24.639Z,99.99
2019-02-04T04:38:25.548Z,99.99
2019-02-04T04:39:23.822Z,99.99
2019-02-04T04:40:24.750Z,99.99
2019-02-04T04:41:24.854Z,99.99
2019-02-04T04:42:23.567Z,99.99
2019-02-04T04:43:24.618Z,99.99
2019-02-04T04:44:23.890Z,99.99
2019-02-04T04:45:23.718Z,99.99
2019-02-04T04:46:24.667Z,99.99
2019-02-04T04:47:24.629Z,99.99
2019-02-04T04:48:26.571Z,99.99
2019-02-04T04:49:26.617Z,99.99
2019-02-04T04:50:23.684Z,99.99
2019-02-04T04:51:23.702Z,99.99
2019-02-04T04:54:48.823Z,99.99
2019-02-04T04:57:01.522Z,99.99
2019-02-04T04:59:24.337Z,99.99
2019-02-04T05:01:59.125Z,99.99
2019-02-04T05:03:09.237Z,99.99
2019-02-04T05:05:39.746Z,99.99
2019-02-04T05:06:57.573Z,99.99
2019-02-04T05:07:55.078Z,99.99
2019-02-04T05:13:18.328Z,99.99
2019-02-04T05:14:20.360Z,99.99
2019-02-04T05:15:51.448Z,99.99
2019-02-04T05:16:18.671Z,99.99
2019-02-04T05:17:20.519Z,99.99
2019-02-04T05:19:41.876Z,99.99
2019-02-04T05:21:03.747Z,99.99
2019-02-04T05:21:42.013Z,99.99
2019-02-04T05:22:47.851Z,99.99
2019-02-04T05:23:42.240Z,99.99
2019-02-04T05:24:42.102Z,99.99
2019-02-04T05:25:45.905Z,99.99
2019-02-04T05:26:42.314Z,99.99
2019-02-04T05:27:42.395Z,99.99
2019-02-04T05:28:43.126Z,99.99
2019-02-04T05:29:42.638Z,99.99
2019-02-04T05:30:42.170Z,99.99
2019-02-04T05:31:43.113Z,99.99
2019-02-04T05:32:43.174Z,99.99
2019-02-04T05:33:43.160Z,99.99
2019-02-04T05:34:41.957Z,99.99
2019-02-04T05:35:43.075Z,99.99
2019-02-04T05:36:42.178Z,99.99
2019-02-04T05:37:50.684Z,99.99
2019-02-04T05:38:50.357Z,99.99
2019-02-04T05:39:50.261Z,99.99
2019-02-04T05:43:51.343Z,99.99
2019-02-04T05:44:54.328Z,99.99
2019-02-04T05:45:52.149Z,99.99
2019-02-04T05:46:52.273Z,99.99
2019-02-04T05:47:58.423Z,99.99
2019-02-04T05:53:22.530Z,99.99
2019-02-04T05:56:14.054Z,99.99
2019-02-04T05:59:04.652Z,99.99
2019-02-04T06:00:18.534Z,99.99
2019-02-04T06:02:35.914Z,99.99
2019-02-04T06:03:35.812Z,99.99
2019-02-04T06:06:19.368Z,99.99
2019-02-04T06:09:21.054Z,99.99
2019-02-04T06:17:37.656Z,99.99
2019-02-04T06:18:46.985Z,99.99
2019-02-04T06:22:58.897Z,99.99
2019-02-04T06:24:02.232Z,99.99
2019-02-04T06:26:12.895Z,99.99
2019-02-04T06:27:23.350Z,99.99
2019-02-04T06:28:13.081Z,99.99
2019-02-04T06:29:13.896Z,99.99
2019-02-04T06:30:12.873Z,99.99
2019-02-04T06:35:50.737Z,99.99
2019-02-04T06:37:09.167Z,99.99
2019-02-04T06:38:01.540Z,99.99
2019-02-04T06:45:36.079Z,99.99
2019-02-04T06:46:36.274Z,99.99
2019-02-04T06:48:53.898Z,99.99
2019-02-04T06:49:54.661Z,99.99
2019-02-04T06:50:55.565Z,99.99
2019-02-04T06:51:55.377Z,99.99
2019-02-04T06:52:54.621Z,99.99
2019-02-04T06:54:00.659Z,99.99
2019-02-04T06:54:54.556Z,99.99
2019-02-04T06:55:57.053Z,99.99
2019-02-04T06:56:56.102Z,99.99
2019-02-04T06:57:56.652Z,99.99
2019-02-04T06:58:55.098Z,99.99
2019-02-04T07:00:12.550Z,99.99
2019-02-04T07:00:56.691Z,99.99
2019-02-04T07:01:54.159Z,99.99
2019-02-04T07:02:55.851Z,99.99
2019-02-04T07:03:58.808Z,99.99
2019-02-04T07:06:15.511Z,99.99
2019-02-04T07:07:15.569Z,99.99
2019-02-04T07:08:16.284Z,99.99
2019-02-04T07:09:32.512Z,99.99
2019-02-04T07:10:18.955Z,99.99
2019-02-04T07:11:25.308Z,99.99
2019-02-04T07:12:16.160Z,99.99
2019-02-04T07:13:16.808Z,99.99
2019-02-04T07:14:15.965Z,99.99
2019-02-04T07:15:28.508Z,99.99
2019-02-04T07:17:44.952Z,99.99
2019-02-04T07:18:57.855Z,99.99
2019-02-04T07:19:55.357Z,99.99
2019-02-04T07:20:54.902Z,99.99
2019-02-04T07:23:42.422Z,99.99
2019-02-04T07:26:02.524Z,99.99
2019-02-04T07:31:07.860Z,99.99
2019-02-04T07:32:07.872Z,99.99
2019-02-04T07:33:07.979Z,99.99
2019-02-04T07:35:25.397Z,99.99
2019-02-04T07:36:25.534Z,99.99
2019-02-04T07:37:25.400Z,99.99
2019-02-04T07:38:25.353Z,99.99
2019-02-04T07:39:25.379Z,95.17
2019-02-04T07:40:25.477Z,89.87
2019-02-04T07:41:25.559Z,87.60
2019-02-04T07:42:25.347Z,85.75
2019-02-04T07:43:25.364Z,82.29
2019-02-04T07:44:25.359Z,83.01
2019-02-04T07:45:25.417Z,83.23
2019-02-04T07:46:27.436Z,84.81
2019-02-04T07:47:33.244Z,87.35
2019-02-04T07:48:25.246Z,88.26
2019-02-04T07:49:34.958Z,90.20
2019-02-04T07:50:26.311Z,89.41
2019-02-04T07:51:25.285Z,90.08
2019-02-04T07:52:26.433Z,90.89
2019-02-04T07:53:25.300Z,91.25
2019-02-04T07:54:25.617Z,87.06
2019-02-04T07:55:26.198Z,83.72
2019-02-04T07:56:25.249Z,81.91
2019-02-04T07:57:25.142Z,81.08
2019-02-04T07:58:25.185Z,80.28
2019-02-04T07:59:25.293Z,79.38
2019-02-04T08:01:41.777Z,79.61
2019-02-04T08:02:48.764Z,76.78
2019-02-04T08:03:50.578Z,76.71
2019-02-04T08:04:50.177Z,73.94
2019-02-04T08:05:51.799Z,73.01
2019-02-04T08:07:58.584Z,72.26
2019-02-04T08:08:59.500Z,70.03
2019-02-04T08:09:59.531Z,68.48
2019-02-04T08:13:30.555Z,64.25
2019-02-04T08:16:38.717Z,63.10
2019-02-04T08:17:47.373Z,62.49
2019-02-04T08:19:57.350Z,60.27
2019-02-04T08:20:57.304Z,61.22
2019-02-04T08:21:57.273Z,60.24
2019-02-04T08:22:57.177Z,58.87
2019-02-04T08:23:57.283Z,58.41
2019-02-04T08:24:58.827Z,57.56
2019-02-04T08:25:57.346Z,56.87
2019-02-04T08:26:57.239Z,56.67
2019-02-04T08:27:57.195Z,58.03
2019-02-04T08:28:57.141Z,60.22
2019-02-04T08:29:58.184Z,59.47
2019-02-04T08:30:57.236Z,60.27
2019-02-04T08:31:57.164Z,59.80
2019-02-04T08:32:57.470Z,57.36
2019-02-04T08:33:57.170Z,56.74
2019-02-04T08:34:58.372Z,59.19
2019-02-04T08:36:05.278Z,60.56
2019-02-04T08:36:57.040Z,60.30
2019-02-04T08:37:57.050Z,59.04
2019-02-04T08:38:57.064Z,61.12
2019-02-04T08:39:56.998Z,59.39
2019-02-04T08:40:57.005Z,58.83
2019-02-04T08:41:56.994Z,60.84
2019-02-04T08:42:56.975Z,60.77
2019-02-04T08:43:56.962Z,60.89
2019-02-04T08:44:57.000Z,63.28
2019-02-04T08:45:57.010Z,66.47
2019-02-04T08:46:56.939Z,68.26
2019-02-04T08:47:56.920Z,68.80
2019-02-04T08:48:56.923Z,69.29
2019-02-04T08:49:58.557Z,69.43
2019-02-04T08:50:56.981Z,67.13
2019-02-04T08:51:56.894Z,65.24
2019-02-04T08:52:56.921Z,63.95
2019-02-04T08:53:56.846Z,63.60
2019-02-04T08:54:56.895Z,61.43
2019-02-04T08:56:04.026Z,58.34
2019-02-04T08:56:57.091Z,56.00
2019-02-04T08:57:57.114Z,54.61
2019-02-04T08:58:56.813Z,57.21
2019-02-04T09:00:04.838Z,57.88
2019-02-04T09:00:56.815Z,56.90
2019-02-04T09:01:56.831Z,56.36
2019-02-04T09:02:56.840Z,55.72
2019-02-04T09:03:56.736Z,57.13
2019-02-04T09:04:56.740Z,57.18
2019-02-04T09:05:56.741Z,58.58
2019-02-04T09:06:56.743Z,62.40
2019-02-04T09:07:56.703Z,63.43
2019-02-04T09:08:56.681Z,61.12
2019-02-04T09:10:03.740Z,57.64
2019-02-04T09:11:03.844Z,55.77
2019-02-04T09:12:03.768Z,55.13
2019-02-04T09:12:56.643Z,55.90
2019-02-04T09:13:56.711Z,54.90
2019-02-04T09:14:56.650Z,57.75
2019-02-04T09:15:56.623Z,59.40
2019-02-04T09:17:04.658Z,58.16
2019-02-04T09:18:03.699Z,57.18
2019-02-04T09:19:05.304Z,55.36
2019-02-04T09:20:10.198Z,54.00
2019-02-04T09:21:03.967Z,53.67
2019-02-04T09:22:05.464Z,53.16
2019-02-04T09:22:57.572Z,55.26
2019-02-04T09:23:56.737Z,58.01
2019-02-04T09:24:56.526Z,57.51
2019-02-04T09:25:56.571Z,56.85
2019-02-04T09:26:56.536Z,53.95
2019-02-04T09:27:56.493Z,53.92
2019-02-04T09:28:56.519Z,54.95
2019-02-04T09:29:56.495Z,56.36
2019-02-04T09:30:56.487Z,55.79
2019-02-04T09:31:56.458Z,57.26
2019-02-04T09:32:56.471Z,56.85
2019-02-04T09:33:56.419Z,59.61
2019-02-04T09:34:56.424Z,59.99
2019-02-04T09:35:56.431Z,58.44
2019-02-04T09:36:56.454Z,56.87
2019-02-04T09:37:56.411Z,56.77
2019-02-04T09:38:56.409Z,55.62
2019-02-04T09:39:56.365Z,58.24
2019-02-04T09:40:56.373Z,59.78
2019-02-04T09:41:56.370Z,60.22
2019-02-04T09:42:56.379Z,59.93
2019-02-04T09:43:56.348Z,57.34
2019-02-04T09:44:56.306Z,56.82
2019-02-04T09:45:56.310Z,57.10
2019-02-04T09:46:56.308Z,57.72
2019-02-04T09:47:56.284Z,55.82
2019-02-04T09:48:56.297Z,52.34
2019-02-04T09:49:56.286Z,50.33
2019-02-04T09:50:56.307Z,48.02
2019-02-04T09:51:56.232Z,45.89
2019-02-04T09:52:56.253Z,44.95
2019-02-04T09:53:56.221Z,43.51
2019-02-04T09:55:03.922Z,44.93
2019-02-04T09:56:03.597Z,51.34
2019-02-04T09:56:56.226Z,52.87
2019-02-04T09:57:56.196Z,51.77
2019-02-04T09:58:56.155Z,53.89
2019-02-04T09:59:56.350Z,55.79
2019-02-04T10:01:04.417Z,57.57
2019-02-04T10:02:04.196Z,58.98
2019-02-04T10:03:03.190Z,59.63
2019-02-04T10:03:56.171Z,62.32
2019-02-04T10:04:56.138Z,65.48
2019-02-04T10:05:56.149Z,64.73
2019-02-04T10:06:56.087Z,64.04
2019-02-04T10:07:56.067Z,61.85
2019-02-04T10:08:56.067Z,61.72
2019-02-04T10:09:58.842Z,61.49
2019-02-04T10:10:56.033Z,60.33
2019-02-04T10:11:56.022Z,60.84
2019-02-04T10:12:56.042Z,60.19
2019-02-04T10:13:55.993Z,59.37
2019-02-04T10:14:56.529Z,61.13
2019-02-04T10:15:56.022Z,62.47
2019-02-04T10:16:56.002Z,62.08
2019-02-04T10:17:55.980Z,62.03
2019-02-04T10:18:55.963Z,61.72
2019-02-04T10:19:55.925Z,60.33
2019-02-04T10:20:56.006Z,58.67
2019-02-04T10:21:56.035Z,56.93
2019-02-04T10:22:55.929Z,56.82
2019-02-04T10:23:55.903Z,57.18
2019-02-04T10:24:55.886Z,58.29
2019-02-04T10:25:55.945Z,57.46
2019-02-04T10:26:55.899Z,57.75
2019-02-04T10:27:55.850Z,58.03
2019-02-04T10:28:55.827Z,55.82
2019-02-04T10:29:55.819Z,55.38
2019-02-04T10:30:55.911Z,54.77
2019-02-04T10:31:55.806Z,55.10
2019-02-04T10:32:55.829Z,55.72
2019-02-04T10:33:55.779Z,55.59
2019-02-04T10:34:55.780Z,55.28
2019-02-04T10:35:55.872Z,55.08
2019-02-04T10:36:55.738Z,54.77
2019-02-04T10:37:55.750Z,54.23
2019-02-04T10:38:55.770Z,55.69
2019-02-04T10:39:55.713Z,56.67
2019-02-04T10:40:55.797Z,57.90
2019-02-04T10:41:55.684Z,56.85
2019-02-04T10:42:55.735Z,58.06
2019-02-04T10:43:55.699Z,57.70
2019-02-04T10:44:55.657Z,57.39
2019-02-04T10:45:55.793Z,58.03
2019-02-04T10:46:55.707Z,58.52
2019-02-04T10:47:55.621Z,57.03
2019-02-04T10:48:55.651Z,56.00
2019-02-04T10:49:55.652Z,55.74
2019-02-04T10:50:55.628Z,56.62
2019-02-04T10:52:03.780Z,55.59
2019-02-04T10:52:55.729Z,55.18
2019-02-04T10:53:55.557Z,54.21
2019-02-04T10:54:55.605Z,53.05
2019-02-04T10:55:55.594Z,50.98
2019-02-04T10:56:55.598Z,50.24
2019-02-04T10:57:55.552Z,50.39
2019-02-04T10:58:55.545Z,51.90
2019-02-04T10:59:55.537Z,50.52
2019-02-04T11:00:56.052Z,48.31
2019-02-04T11:01:55.509Z,47.92
2019-02-04T11:02:55.464Z,47.88
2019-02-04T11:03:55.464Z,47.60
2019-02-04T11:04:55.484Z,47.24
2019-02-04T11:05:55.590Z,47.29
2019-02-04T11:06:55.449Z,47.45
2019-02-04T11:07:55.425Z,47.19
2019-02-04T11:08:55.417Z,47.39
2019-02-04T11:09:55.436Z,49.73
2019-02-04T11:11:04.091Z,49.90
2019-02-04T11:11:55.642Z,51.62
2019-02-04T11:12:55.475Z,50.90
2019-02-04T11:13:55.368Z,50.57
2019-02-04T11:14:55.366Z,51.64
2019-02-04T11:15:55.390Z,53.03
2019-02-04T11:16:55.402Z,53.28
2019-02-04T11:17:55.299Z,53.46
2019-02-04T11:18:55.323Z,53.66
2019-02-04T11:19:55.311Z,53.56
2019-02-04T11:20:58.040Z,52.51
2019-02-04T11:21:55.344Z,53.92
2019-02-04T11:22:55.281Z,57.01
2019-02-04T11:23:55.254Z,60.21
2019-02-04T11:24:55.293Z,59.82
2019-02-04T11:25:55.268Z,61.40
2019-02-04T11:26:55.357Z,59.79
2019-02-04T11:27:55.221Z,62.07
2019-02-04T11:28:55.205Z,62.82
2019-02-04T11:29:55.181Z,63.89
2019-02-04T11:30:55.233Z,60.95
2019-02-04T11:31:55.174Z,58.81
2019-02-04T11:32:55.191Z,57.03
2019-02-04T11:33:55.128Z,56.77
2019-02-04T11:34:55.152Z,56.95
2019-02-04T11:35:55.137Z,57.18
2019-02-04T11:36:55.164Z,55.87
2019-02-04T11:37:55.132Z,53.02
2019-02-04T11:38:55.136Z,52.82
2019-02-04T11:39:55.086Z,50.57
2019-02-04T11:40:55.051Z,50.54
2019-02-04T11:41:55.093Z,51.07
2019-02-04T11:42:55.084Z,52.84
2019-02-04T11:44:03.112Z,50.18
2019-02-04T11:45:02.813Z,49.52
2019-02-04T11:46:02.508Z,45.63
2019-02-04T11:47:03.097Z,47.00
2019-02-04T11:48:03.856Z,44.78
2019-02-04T11:49:03.727Z,42.90
2019-02-04T11:50:02.751Z,42.06
2019-02-04T11:50:55.087Z,41.74
2019-02-04T11:51:55.106Z,42.94
2019-02-04T11:53:03.029Z,46.23
2019-02-04T11:53:55.033Z,47.05
2019-02-04T11:54:55.051Z,46.33
2019-02-04T11:55:54.953Z,44.78
2019-02-04T11:56:54.917Z,41.52
2019-02-04T11:57:54.868Z,42.30
2019-02-04T11:58:55.757Z,43.84
2019-02-04T11:59:54.850Z,41.86
2019-02-04T12:00:54.847Z,46.31
2019-02-04T12:01:54.838Z,51.79
2019-02-04T12:02:54.816Z,48.58
2019-02-04T12:03:54.805Z,43.44
2019-02-04T12:04:55.807Z,43.53
2019-02-04T12:05:54.811Z,44.10
2019-02-04T12:06:54.849Z,41.02
2019-02-04T12:07:54.773Z,39.72
2019-02-04T12:08:54.745Z,40.88
2019-02-04T12:09:54.756Z,40.52
2019-02-04T12:10:54.733Z,38.70
2019-02-04T12:11:55.763Z,36.14
2019-02-04T12:12:54.717Z,34.47
2019-02-04T12:13:54.707Z,32.59
2019-02-04T12:15:02.816Z,31.46
2019-02-04T12:16:01.805Z,32.65
2019-02-04T12:17:02.833Z,34.50
2019-02-04T12:18:03.454Z,36.04
2019-02-04T12:18:54.722Z,38.07
2019-02-04T12:19:54.662Z,39.66
2019-02-04T12:20:55.414Z,36.00
2019-02-04T12:21:54.603Z,34.79
2019-02-04T12:22:54.606Z,31.49
2019-02-04T12:23:54.603Z,30.54
2019-02-04T12:24:54.621Z,31.38
2019-02-04T12:25:54.588Z,35.41
2019-02-04T12:26:54.617Z,37.46
2019-02-04T12:27:54.564Z,39.13
2019-02-04T12:28:57.721Z,38.65
2019-02-04T12:29:54.540Z,43.90
2019-02-04T12:30:54.523Z,50.13
2019-02-04T12:31:54.552Z,53.63
2019-02-04T12:32:54.599Z,47.81
2019-02-04T12:33:54.492Z,50.75
2019-02-04T12:34:54.503Z,53.22
2019-02-04T12:35:54.476Z,50.68
2019-02-04T12:36:54.632Z,46.70
2019-02-04T12:37:54.464Z,42.06
2019-02-04T12:38:54.420Z,42.36
2019-02-04T12:39:54.496Z,45.10
2019-02-04T12:40:54.433Z,44.61
2019-02-04T12:41:54.453Z,40.55
2019-02-04T12:42:54.401Z,37.36
2019-02-04T12:43:54.395Z,44.62
2019-02-04T12:44:54.407Z,49.01
2019-02-04T12:45:54.364Z,44.73
2019-02-04T12:46:54.393Z,42.49
2019-02-04T12:47:54.368Z,40.64
2019-02-04T12:48:54.329Z,38.40
2019-02-04T12:49:54.293Z,38.48
2019-02-04T12:50:54.302Z,40.26
2019-02-04T12:51:54.282Z,39.86
2019-02-04T12:52:54.299Z,41.06
2019-02-04T12:53:54.291Z,44.74
2019-02-04T12:55:02.396Z,48.77
2019-02-04T12:56:03.480Z,51.50
2019-02-04T12:56:54.332Z,52.40
2019-02-04T12:57:54.378Z,49.79
2019-02-04T12:58:55.620Z,44.24
2019-02-04T12:59:54.232Z,41.63
2019-02-04T13:00:54.625Z,41.65
2019-02-04T13:01:54.582Z,43.35
2019-02-04T13:02:54.168Z,44.55
2019-02-04T13:03:54.194Z,47.76
2019-02-04T13:04:54.181Z,49.65
2019-02-04T13:05:54.154Z,47.97
2019-02-04T13:06:54.204Z,48.85
2019-02-04T13:07:54.131Z,53.68
2019-02-04T13:08:54.094Z,56.34
2019-02-04T13:09:54.110Z,57.37
2019-02-04T13:10:54.080Z,55.15
2019-02-04T13:11:54.065Z,54.87
2019-02-04T13:12:54.058Z,50.36
2019-02-04T13:13:54.048Z,45.64
2019-02-04T13:14:54.040Z,46.30
2019-02-04T13:15:54.019Z,48.97
2019-02-04T13:16:54.073Z,50.56
2019-02-04T13:17:54.023Z,49.31
2019-02-04T13:18:54.007Z,46.11
2019-02-04T13:19:53.983Z,42.83
2019-02-04T13:20:53.977Z,41.61
2019-02-04T13:21:53.981Z,42.33
2019-02-04T13:22:53.990Z,41.80
2019-02-04T13:23:53.966Z,40.05
2019-02-04T13:24:53.931Z,41.71
2019-02-04T13:25:53.923Z,41.96
2019-02-04T13:26:53.917Z,42.22
2019-02-04T13:27:53.922Z,41.89
2019-02-04T13:28:53.875Z,40.49
2019-02-04T13:29:53.877Z,43.02
2019-02-04T13:30:53.869Z,41.94
2019-02-04T13:31:53.881Z,40.49
2019-02-04T13:32:53.954Z,41.96
2019-02-04T13:33:53.857Z,42.02
2019-02-04T13:34:53.832Z,40.53
2019-02-04T13:35:54.808Z,39.45
2019-02-04T13:36:53.825Z,39.98
2019-02-04T13:37:53.890Z,42.41
2019-02-04T13:38:53.780Z,42.16
2019-02-04T13:39:53.799Z,41.92
2019-02-04T13:40:53.774Z,39.50
2019-02-04T13:42:01.385Z,40.92
2019-02-04T13:42:53.867Z,41.67
2019-02-04T13:43:53.795Z,42.00
2019-02-04T13:44:53.718Z,43.26
2019-02-04T13:45:53.744Z,42.94
2019-02-04T13:46:53.689Z,41.42
2019-02-04T13:47:53.705Z,40.35
2019-02-04T13:48:53.684Z,40.21
2019-02-04T13:49:53.668Z,38.43
2019-02-04T13:50:53.661Z,37.10
2019-02-04T13:51:57.732Z,38.01
2019-02-04T13:52:53.663Z,39.49
2019-02-04T13:53:53.636Z,39.81
2019-02-04T13:54:53.614Z,42.14
2019-02-04T13:55:53.572Z,43.67
2019-02-04T13:56:53.604Z,43.79
2019-02-04T13:57:53.592Z,45.66
2019-02-04T13:58:53.601Z,46.20
2019-02-04T13:59:53.578Z,47.47
2019-02-04T14:00:53.530Z,47.80
2019-02-04T14:01:53.536Z,48.44
2019-02-04T14:02:59.256Z,49.98
2019-02-04T14:03:54.499Z,48.16
2019-02-04T14:04:53.516Z,50.05
2019-02-04T14:05:53.486Z,50.16
2019-02-04T14:06:53.488Z,49.74
2019-02-04T14:07:53.463Z,49.93
2019-02-04T14:08:53.443Z,48.67
2019-02-04T14:09:53.446Z,48.98
2019-02-04T14:10:53.429Z,48.20
2019-02-04T14:11:53.978Z,49.87
2019-02-04T14:12:53.401Z,49.64
2019-02-04T14:13:53.391Z,48.28
2019-02-04T14:14:53.395Z,49.00
2019-02-04T14:15:53.381Z,48.77
2019-02-04T14:17:02.057Z,47.82
2019-02-04T14:18:01.413Z,48.18
2019-02-04T14:19:02.060Z,49.25
2019-02-04T14:19:53.329Z,51.07
2019-02-04T14:20:53.365Z,50.84
2019-02-04T14:21:53.333Z,51.54
2019-02-04T14:23:00.447Z,49.85
2019-02-04T14:24:00.350Z,49.66
2019-02-04T14:24:53.353Z,50.72
2019-02-04T14:26:01.354Z,51.13
2019-02-04T14:27:01.300Z,50.57
2019-02-04T14:28:03.349Z,50.46
2019-02-04T14:29:01.155Z,51.29
2019-02-04T14:30:00.283Z,52.32
2019-02-04T14:31:01.278Z,52.78
2019-02-04T14:31:53.210Z,52.03
2019-02-04T14:32:53.214Z,52.73
2019-02-04T14:33:53.191Z,51.70
2019-02-04T14:34:54.667Z,52.55
2019-02-04T14:35:53.162Z,53.78
2019-02-04T14:36:53.131Z,54.14
2019-02-04T14:37:53.158Z,53.83
2019-02-04T14:38:53.148Z,53.81
2019-02-04T14:39:53.115Z,53.94
2019-02-04T14:40:53.105Z,54.64
2019-02-04T14:41:53.106Z,54.38
2019-02-04T14:42:53.107Z,55.07
2019-02-04T14:43:53.099Z,54.04
2019-02-04T14:44:53.085Z,54.56
2019-02-04T14:45:53.454Z,55.62
2019-02-04T14:46:53.039Z,55.98
2019-02-04T14:48:03.142Z,56.60
2019-02-04T14:48:54.036Z,57.21
2019-02-04T14:49:53.003Z,57.24
2019-02-04T14:50:53.004Z,58.07